Time;durP1;ratioP1;P1;durP2;ratioP2;P2;SDS_P1;SDS_P2;PMS_P1;PMS_P2;Temp;Humidity;BMP_temperature;BMP_pressure;BME280_temperature;BME280_humidity;BME280_pressure;Samples;Min_cycle;Max_cycle;Signal;HPM_P1;HPM_P2
2021/08/03 00:01:09;;;;;;;1.77;0.90;;;;;;;;;;5051044;28;20036;-88
2021/08/03 00:03:39;;;;;;;1.83;1.17;;;;;;;;;;5054592;28;20040;-87
2021/08/03 00:06:10;;;;;;;1.58;0.98;;;;;;;;;;5057554;28;20029;-87
2021/08/03 00:08:37;;;;;;;1.23;0.95;;;;;;;;;;5062800;28;20028;-87
2021/08/03 00:11:04;;;;;;;;;;;17.30;66.50;;;;;;5056684;28;20540;-88
2021/08/03 00:13:30;;;;;;;1.80;0.80;;;;;;;;;;5065428;28;19909;-86
2021/08/03 00:16:03;;;;;;;1.48;0.80;;;17.30;66.80;;;;;;5058171;28;20267;-87
2021/08/03 00:18:32;;;;;;;1.52;1.23;;;;;;;;;;5056461;28;20044;-88
2021/08/03 00:21:00;;;;;;;0.88;0.70;;;;;;;;;;5052621;28;20078;-87
2021/08/03 00:23:26;;;;;;;1.20;0.80;;;;;;;;;;5065855;28;20041;-88
2021/08/03 00:25:54;;;;;;;2.17;1.20;;;;;;;;;;5059504;28;20366;-87
2021/08/03 00:28:20;;;;;;;1.02;0.85;;;;;;;;;;5056313;28;20382;-87
2021/08/03 00:30:46;;;;;;;2.20;1.00;;;;;;;;;;5061618;28;20040;-88
2021/08/03 00:33:12;;;;;;;1.10;0.77;;;;;;;;;;5063845;28;20013;-87
2021/08/03 00:35:38;;;;;;;1.38;1.10;;;;;;;;;;5061306;28;20075;-85
2021/08/03 00:38:04;;;;;;;6.70;1.10;;;;;;;;;;5058922;28;20048;-87
2021/08/03 00:40:31;;;;;;;0.98;0.90;;;;;;;;;;5049320;28;20107;-87
2021/08/03 00:42:57;;;;;;;1.15;0.80;;;;;;;;;;5056284;28;20576;-87
2021/08/03 00:45:23;;;;;;;0.70;0.70;;;;;;;;;;5049931;28;20033;-88
2021/08/03 00:47:49;;;;;;;1.38;0.88;;;;;;;;;;5051794;28;20070;-88
2021/08/03 00:50:15;;;;;;;1.30;0.90;;;;;;;;;;5057722;28;20025;-87
2021/08/03 00:52:42;;;;;;;2.33;0.90;;;;;;;;;;5051271;28;20535;-87
2021/08/03 00:55:09;;;;;;;1.42;1.33;;;;;;;;;;5055933;28;20029;-88
2021/08/03 00:57:35;;;;;;;1.80;1.50;;;;;;;;;;5052466;28;20216;-87
2021/08/03 01:00:01;;;;;;;2.67;0.90;;;;;;;;;;5057594;28;20463;-87
2021/08/03 01:02:27;;;;;;;1.08;0.80;;;;;;;;;;5052808;28;20115;-87
2021/08/03 01:04:53;;;;;;;1.33;1.00;;;;;;;;;;5057721;28;20032;-88
2021/08/03 01:07:20;;;;;;;3.60;0.80;;;;;;;;;;5055438;28;20497;-87
2021/08/03 01:10:22;;;;;;;1.40;0.98;;;16.70;67.00;;;;;;5049062;28;20056;-87
2021/08/03 01:13:07;;;;;;;6.18;1.48;;;16.60;67.30;;;;;;5057300;28;20067;-86
2021/08/03 01:15:51;;;;;;;1.00;0.80;;;;;;;;;;5050597;28;20025;-87
2021/08/03 01:18:20;;;;;;;1.80;1.13;;;16.50;68.00;;;;;;5052802;28;20029;-88
2021/08/03 01:20:59;;;;;;;2.90;0.95;;;;;;;;;;5048802;28;20040;-87
2021/08/03 01:23:37;;;;;;;2.28;1.48;;;;;;;;;;5077796;28;20178;-88
2021/08/03 01:26:15;;;;;;;1.60;1.23;;;;;;;;;;5058780;28;20115;-87
2021/08/03 01:28:46;;;;;;;2.03;1.13;;;;;;;;;;5054413;28;20432;-88
2021/08/03 01:31:23;;;;;;;1.80;0.80;;;;;;;;;;5057765;28;20028;-88
2021/08/03 01:33:51;;;;;;;0.80;0.75;;;;;;;;;;5051416;28;20032;-88
2021/08/03 01:36:17;;;;;;;;;;;;;;;;;;5054900;28;20055;-87
2021/08/03 01:38:45;;;;;;;4.07;1.13;;;;;;;;;;5061942;28;20383;-87
2021/08/03 01:41:14;;;;;;;1.55;0.90;;;;;;;;;;5052314;28;20028;-88
2021/08/03 01:43:41;;;;;;;0.73;0.60;;;16.60;67.50;;;;;;5053391;28;20060;-87
2021/08/03 01:46:08;;;;;;;1.10;1.00;;;;;;;;;;5055494;28;20065;-88
2021/08/03 01:48:35;;;;;;;1.73;0.93;;;;;;;;;;5053915;28;20116;-87
2021/08/03 01:51:02;;;;;;;1.38;1.05;;;;;;;;;;5054231;28;20037;-88
2021/08/03 01:53:28;;;;;;;2.20;1.13;;;;;;;;;;5055150;28;20021;-87
2021/08/03 01:55:55;;;;;;;1.52;0.47;;;;;;;;;;5053142;28;20055;-87
2021/08/03 01:58:22;;;;;;;0.80;0.80;;;;;;;;;;5059831;28;20070;-88
2021/08/03 02:00:48;;;;;;;0.95;0.80;;;;;;;;;;5056987;28;20184;-87
2021/08/03 02:03:14;;;;;;;0.90;0.70;;;;;;;;;;5054832;28;20021;-88
2021/08/03 02:05:43;;;;;;;2.53;1.08;;;16.80;68.10;;;;;;5063372;28;20043;-87
2021/08/03 02:08:10;;;;;;;1.45;1.05;;;16.80;68.30;;;;;;5049026;28;20049;-87
2021/08/03 02:10:36;;;;;;;1.55;0.80;;;;;;;;;;5053012;28;20154;-87
2021/08/03 02:13:03;;;;;;;1.02;0.85;;;;;;;;;;5052172;28;20037;-87
2021/08/03 02:15:30;;;;;;;2.40;1.10;;;17.00;66.30;;;;;;5056618;28;20029;-86
2021/08/03 02:17:56;;;;;;;1.55;0.77;;;;;;;;;;5059673;28;20048;-87
2021/08/03 02:20:22;;;;;;;1.23;1.08;;;;;;;;;;5047284;28;20091;-87
2021/08/03 02:22:49;;;;;;;2.60;1.60;;;;;;;;;;5048301;28;20029;-87
2021/08/03 02:25:15;;;;;;;1.15;0.80;;;;;;;;;;5055661;28;20040;-88
2021/08/03 02:27:41;;;;;;;2.10;1.07;;;;;;;;;;5056180;28;20054;-87
2021/08/03 02:30:08;;;;;;;2.55;0.73;;;;;;;;;;5051753;28;20037;-87
2021/08/03 02:32:47;;;;;;;1.48;1.02;;;;;;;;;;5048846;28;20482;-87
2021/08/03 02:35:24;;;;;;;0.93;0.80;;;;;;;;;;5064369;28;20057;-87
2021/08/03 02:37:52;;;;;;;0.68;0.60;;;;;;;;;;5050556;28;20033;-87
2021/08/03 02:40:18;;;;;;;1.05;0.82;;;;;;;;;;5063434;28;20067;-86
2021/08/03 02:42:45;;;;;;;1.40;0.98;;;16.90;67.20;;;;;;5058863;28;20024;-87
2021/08/03 02:45:12;;;;;;;2.78;0.98;;;;;;;;;;5056882;28;20611;-87
2021/08/03 02:47:59;;;;;;;;;;;;;;;;;;5059145;28;20405;-87
2021/08/03 02:50:25;;;;;;;;;;;;;;;;;;5062950;28;20003;-87
2021/08/03 02:52:55;;;;;;;2.35;0.95;;;;;;;;;;5058173;28;19987;-87
2021/08/03 02:55:31;;;;;;;2.10;1.40;;;17.00;67.30;;;;;;5059252;28;20017;-87
2021/08/03 02:58:01;;;;;;;1.93;1.30;;;;;;;;;;5051170;28;20052;-88
2021/08/03 03:00:32;;;;;;;4.13;0.73;;;17.20;67.00;;;;;;5062005;28;20032;-87
2021/08/03 03:02:59;;;;;;;0.90;0.90;;;;;;;;;;5060127;28;20036;-86
2021/08/03 03:05:27;;;;;;;1.40;0.65;;;;;;;;;;5051906;28;20072;-87
2021/08/03 03:07:59;;;;;;;1.77;1.15;;;17.10;65.90;;;;;;5056479;28;20459;-87
2021/08/03 03:10:29;;;;;;;1.05;0.77;;;17.30;65.40;;;;;;5059990;28;20056;-87
2021/08/03 03:12:59;;;;;;;1.55;0.93;;;17.20;65.90;;;;;;5056979;28;20033;-87
2021/08/03 03:15:25;;;;;;;1.13;0.95;;;;;;;;;;5065153;28;20050;-87
2021/08/03 03:17:51;;;;;;;1.95;0.70;;;;;;;;;;5057580;28;20029;-87
2021/08/03 03:20:18;;;;;;;3.15;1.17;;;;;;;;;;5058339;28;20485;-86
2021/08/03 03:22:45;;;;;;;2.67;1.35;;;;;;;;;;5060229;28;20036;-87
2021/08/03 03:25:12;;;;;;;1.85;0.90;;;;;;;;;;5056269;28;20098;-87
2021/08/03 03:27:39;;;;;;;1.70;0.77;;;;;;;;;;5058393;28;20021;-86
2021/08/03 03:30:06;;;;;;;3.78;0.60;;;;;;;;;;5062377;28;20041;-87
2021/08/03 03:32:32;;;;;;;1.20;1.00;;;;;;;;;;5061473;28;20044;-87
2021/08/03 03:34:59;;;;;;;2.47;1.00;;;;;;;;;;5055478;28;20028;-87
2021/08/03 03:37:29;;;;;;;1.25;1.00;;;16.90;68.00;;;;;;5058261;28;20029;-88
2021/08/03 03:39:55;;;;;;;1.75;1.17;;;;;;;;;;5055333;28;20029;-87
2021/08/03 03:42:22;;;;;;;1.27;0.75;;;;;;;;;;5058313;28;20028;-87
2021/08/03 03:44:48;;;;;;;1.83;1.15;;;;;;;;;;5058969;28;20855;-87
2021/08/03 03:47:24;;;;;;;1.63;0.93;;;;;;;;;;5052591;28;20138;-87
2021/08/03 03:49:55;;;;;;;3.22;1.08;;;;;;;;;;5062592;28;20029;-88
2021/08/03 03:52:22;;;;;;;1.45;1.13;;;;;;;;;;5065829;28;20162;-88
2021/08/03 03:54:51;;;;;;;2.70;1.17;;;16.90;69.60;;;;;;5065458;28;20024;-87
2021/08/03 03:57:18;;;;;;;3.72;1.23;;;;;;;;;;5055393;28;20033;-87
2021/08/03 03:59:45;;;;;;;1.23;1.08;;;;;;;;;;5062982;28;20024;-87
2021/08/03 04:02:13;;;;;;;1.33;0.80;;;;;;;;;;5055219;28;20070;-87
2021/08/03 04:04:40;;;;;;;1.90;0.93;;;17.20;67.80;;;;;;5058846;28;20040;-87
2021/08/03 04:07:06;;;;;;;2.05;0.90;;;;;;;;;;5062875;28;20040;-87
2021/08/03 04:09:32;;;;;;;2.80;1.40;;;;;;;;;;5055424;28;20159;-87
2021/08/03 04:11:58;;;;;;;4.07;1.25;;;;;;;;;;5058558;28;20033;-87
2021/08/03 04:14:25;;;;;;;1.55;1.00;;;;;;;;;;5057699;28;20032;-87
2021/08/03 04:16:52;;;;;;;0.90;0.63;;;;;;;;;;5058190;28;20029;-87
2021/08/03 04:19:18;;;;;;;1.00;0.90;;;;;;;;;;5056408;28;20025;-87
2021/08/03 04:21:46;;;;;;;2.00;0.80;;;;;;;;;;5057974;28;20279;-87
2021/08/03 04:24:14;;;;;;;;;;;17.00;68.50;;;;;;5062214;28;20047;-87
2021/08/03 04:26:40;;;;;;;3.60;1.13;;;;;;;;;;5064625;28;19945;-88
2021/08/03 04:29:06;;;;;;;2.08;1.33;;;;;;;;;;5052352;28;20055;-88
2021/08/03 04:31:33;;;;;;;4.03;0.68;;;;;;;;;;5055155;28;20509;-86
2021/08/03 04:33:59;;;;;;;0.80;0.80;;;;;;;;;;5057820;28;20515;-87
2021/08/03 04:36:25;;;;;;;1.30;0.80;;;;;;;;;;5058510;28;20988;-87
2021/08/03 04:38:51;;;;;;;1.77;1.25;;;;;;;;;;5058533;28;20185;-87
2021/08/03 04:41:17;;;;;;;2.38;1.42;;;;;;;;;;5063092;28;20035;-87
2021/08/03 04:43:43;;;;;;;1.33;1.08;;;;;;;;;;5059638;28;20112;-86
2021/08/03 04:46:09;;;;;;;1.77;1.17;;;;;;;;;;5059219;28;20523;-87
2021/08/03 04:48:35;;;;;;;2.63;0.90;;;;;;;;;;5050642;28;20036;-88
2021/08/03 04:51:01;;;;;;;2.97;1.15;;;;;;;;;;5054017;28;20029;-87
2021/08/03 04:53:27;;;;;;;0.80;0.70;;;;;;;;;;5056063;28;20393;-87
2021/08/03 04:55:53;;;;;;;1.40;1.27;;;;;;;;;;5056111;28;20041;-86
2021/08/03 04:58:19;;;;;;;2.63;1.35;;;;;;;;;;5063364;28;20060;-88
2021/08/03 05:00:45;;;;;;;0.82;0.80;;;;;;;;;;5055500;28;20060;-87
2021/08/03 05:03:13;;;;;;;0.73;0.70;;;;;;;;;;5063008;28;20568;-87
2021/08/03 05:05:39;;;;;;;1.63;1.15;;;;;;;;;;5051886;28;20044;-87
2021/08/03 05:08:05;;;;;;;1.50;1.10;;;;;;;;;;5056800;28;20025;-87
2021/08/03 05:10:32;;;;;;;2.42;1.88;;;17.40;67.50;;;;;;5051500;28;20045;-86
2021/08/03 05:12:58;;;;;;;1.30;0.98;;;;;;;;;;5053495;28;20142;-86
2021/08/03 05:15:24;;;;;;;0.85;0.82;;;;;;;;;;5049360;28;20064;-88
2021/08/03 05:17:51;;;;;;;3.30;0.93;;;;;;;;;;5061356;28;20569;-87
2021/08/03 05:20:17;;;;;;;1.40;0.90;;;;;;;;;;5051142;28;20056;-87
2021/08/03 05:22:43;;;;;;;3.45;1.17;;;;;;;;;;5050500;28;20044;-87
2021/08/03 05:25:09;;;;;;;1.70;1.02;;;;;;;;;;5055412;28;20103;-87
2021/08/03 05:27:35;;;;;;;2.58;2.00;;;;;;;;;;5052806;28;20498;-87
2021/08/03 05:30:02;;;;;;;0.75;0.65;;;;;;;;;;5059858;28;20029;-87
2021/08/03 05:32:28;;;;;;;1.92;1.50;;;;;;;;;;5055696;28;20040;-87
2021/08/03 05:34:54;;;;;;;2.80;1.00;;;;;;;;;;5060265;28;20025;-87
2021/08/03 05:37:20;;;;;;;1.35;0.90;;;;;;;;;;5059776;28;20161;-87
2021/08/03 05:39:46;;;;;;;1.63;1.02;;;;;;;;;;5049221;28;20623;-88
2021/08/03 05:42:12;;;;;;;2.58;1.52;;;;;;;;;;5061013;28;20021;-87
2021/08/03 05:44:38;;;;;;;3.47;1.00;;;;;;;;;;5057638;28;20051;-88
2021/08/03 05:47:04;;;;;;;1.30;0.80;;;;;;;;;;5057581;28;20021;-88
2021/08/03 05:49:30;;;;;;;0.95;0.80;;;;;;;;;;5047181;28;20502;-86
2021/08/03 05:51:56;;;;;;;1.67;1.15;;;;;;;;;;5055309;28;20032;-87
2021/08/03 05:54:22;;;;;;;4.13;1.25;;;;;;;;;;5056340;28;20060;-88
2021/08/03 05:56:48;;;;;;;0.63;0.55;;;;;;;;;;5059012;28;20063;-86
2021/08/03 05:59:14;;;;;;;1.65;0.80;;;;;;;;;;5054167;28;20036;-87
2021/08/03 06:01:40;;;;;;;1.65;0.80;;;;;;;;;;5056779;28;20040;-87
2021/08/03 06:04:06;;;;;;;1.83;1.30;;;;;;;;;;5047079;28;20049;-86
2021/08/03 06:06:38;;;;;;;1.83;1.40;;;;;;;;;;5054743;28;20025;-88
2021/08/03 06:09:04;;;;;;;0.90;0.70;;;;;;;;;;5056173;28;20025;-87
2021/08/03 06:11:30;;;;;;;1.95;1.10;;;;;;;;;;5052144;28;20385;-87
2021/08/03 06:13:59;;;;;;;1.95;0.95;;;;;;;;;;5061045;28;20028;-88
2021/08/03 06:16:26;;;;;;;7.50;1.08;;;;;;;;;;5057529;28;20033;-86
2021/08/03 06:18:56;;;;;;;2.73;0.90;;;;;;;;;;5052895;28;20087;-87
2021/08/03 06:21:22;;;;;;;1.45;1.00;;;;;;;;;;5053015;28;20279;-88
2021/08/03 06:23:49;;;;;;;1.15;0.90;;;;;;;;;;5051906;28;20025;-87
2021/08/03 06:26:17;;;;;;;2.25;1.20;;;;;;;;;;5053465;28;20044;-87
2021/08/03 06:28:44;;;;;;;3.30;1.02;;;;;;;;;;5058918;28;20128;-87
2021/08/03 06:31:11;;;;;;;1.48;0.60;;;;;;;;;;5061621;28;20557;-87
2021/08/03 06:33:36;;;;;;;2.05;0.77;;;;;;;;;;5060511;28;20033;-87
2021/08/03 06:36:02;;;;;;;1.00;0.75;;;;;;;;;;5069910;28;20074;-87
2021/08/03 06:38:29;;;;;;;1.95;0.60;;;;;;;;;;5072398;28;20554;-87
2021/08/03 06:40:55;;;;;;;1.60;0.98;;;;;;;;;;5067280;28;20563;-87
2021/08/03 06:43:25;;;;;;;4.43;2.10;;;19.50;61.50;;;;;;5065089;28;20144;-88
2021/08/03 06:45:55;;;;;;;1.60;1.10;;;;;;;;;;5064917;28;20044;-88
2021/08/03 06:48:36;;;;;;;1.05;0.52;;;19.60;60.80;;;;;;5055326;28;20013;-87
2021/08/03 06:51:09;;;;;;;1.42;0.90;;;;;;;;;;5054603;28;20025;-88
2021/08/03 06:53:37;;;;;;;1.65;0.80;;;19.70;60.80;;;;;;5072694;28;20036;-89
2021/08/03 06:56:03;;;;;;;;;;;19.80;60.80;;;;;;5066829;28;20028;-93
2021/08/03 06:58:38;;;;;;;0.93;0.80;;;;;;;;;;5064428;28;19912;-96
2021/08/03 07:01:05;;;;;;;1.92;0.60;;;;;;;;;;5073474;28;20024;-96
2021/08/03 07:03:44;;;;;;;1.13;0.63;;;;;;;;;;5464764;23;20058;-96
2021/08/03 07:06:20;;;;;;;1.45;0.65;;;;;;;;;;5000251;28;20038;-96
2021/08/03 07:09:05;;;;;;;0.63;0.63;;;20.00;60.60;;;;;;5009645;28;20138;-96
2021/08/03 07:11:32;;;;;;;2.40;0.77;;;;;;;;;;5001598;28;20042;-94
2021/08/03 07:13:59;;;;;;;1.23;0.68;;;;;;;;;;4995399;28;20035;-92
2021/08/03 07:16:27;;;;;;;3.10;0.98;;;;;;;;;;4977902;28;20048;-94
2021/08/03 07:18:54;;;;;;;1.45;0.80;;;;;;;;;;4978627;28;20117;-92
2021/08/03 07:21:21;;;;;;;5.57;0.60;;;;;;;;;;4995716;28;20106;-90
2021/08/03 07:23:47;;;;;;;2.05;0.95;;;;;;;;;;4992728;28;20035;-89
2021/08/03 07:26:13;;;;;;;1.27;0.68;;;;;;;;;;4994234;28;20037;-88
2021/08/03 07:28:39;;;;;;;3.67;1.85;;;;;;;;;;4974906;28;20385;-89
2021/08/03 07:31:05;;;;;;;1.38;0.85;;;;;;;;;;4993072;28;20022;-89
2021/08/03 07:33:31;;;;;;;3.22;0.80;;;;;;;;;;4987781;28;20053;-88
2021/08/03 07:35:57;;;;;;;7.43;0.82;;;;;;;;;;4973412;28;20026;-89
2021/08/03 07:38:23;;;;;;;4.10;0.93;;;;;;;;;;4994528;28;20114;-93
2021/08/03 07:40:49;;;;;;;1.83;0.60;;;;;;;;;;4975182;28;20054;-93
2021/08/03 07:43:15;;;;;;;2.25;0.98;;;;;;;;;;4994441;28;20057;-96
2021/08/03 07:45:41;;;;;;;2.60;0.45;;;;;;;;;;4987167;28;20035;-95
2021/08/03 07:48:11;;;;;;;1.15;0.47;;;;;;;;;;4975144;28;20054;-88
2021/08/03 07:50:37;;;;;;;1.67;0.73;;;;;;;;;;4990794;28;20064;-87
2021/08/03 07:53:03;;;;;;;0.40;0.40;;;;;;;;;;4975010;28;20037;-87
2021/08/03 07:55:29;;;;;;;1.40;0.52;;;;;;;;;;4975963;28;20029;-85
2021/08/03 07:57:55;;;;;;;2.50;1.13;;;;;;;;;;4977330;28;20041;-88
2021/08/03 08:00:21;;;;;;;9.88;0.90;;;;;;;;;;4971317;28;20019;-93
2021/08/03 08:02:47;;;;;;;0.65;0.45;;;;;;;;;;4974975;28;20026;-93
2021/08/03 08:05:13;;;;;;;1.05;0.43;;;;;;;;;;4975481;28;20050;-92
2021/08/03 08:07:39;;;;;;;0.70;0.50;;;;;;;;;;4990787;28;20022;-87
2021/08/03 08:10:05;;;;;;;1.13;0.57;;;;;;;;;;4989905;28;20080;-87
2021/08/03 08:12:31;;;;;;;0.80;0.32;;;;;;;;;;4986411;28;20031;-86
2021/08/03 08:14:57;;;;;;;0.60;0.50;;;;;;;;;;4987293;28;20487;-87
2021/08/03 08:17:23;;;;;;;1.00;0.50;;;;;;;;;;4990886;28;20030;-86
2021/08/03 08:19:49;;;;;;;1.45;0.73;;;;;;;;;;4989278;28;20034;-88
2021/08/03 08:22:16;;;;;;;0.30;0.30;;;;;;;;;;4986426;28;20654;-86
2021/08/03 08:24:42;;;;;;;10.45;1.73;;;;;;;;;;4990163;28;20057;-86
2021/08/03 08:27:08;;;;;;;2.33;0.73;;;;;;;;;;4993304;28;20415;-92
2021/08/03 08:29:34;;;;;;;1.08;0.50;;;;;;;;;;4994133;28;20026;-89
2021/08/03 08:32:00;;;;;;;1.50;0.70;;;;;;;;;;4985923;28;20053;-86
2021/08/03 08:34:26;;;;;;;2.42;0.85;;;;;;;;;;4970138;28;20022;-86
2021/08/03 08:36:53;;;;;;;1.40;0.63;;;;;;;;;;4988882;28;20038;-86
2021/08/03 08:39:19;;;;;;;2.90;0.75;;;;;;;;;;4988957;28;20036;-86
2021/08/03 08:41:45;;;;;;;1.92;0.65;;;;;;;;;;4991157;28;20026;-91
2021/08/03 08:44:11;;;;;;;0.95;0.60;;;;;;;;;;4974698;28;20034;-91
2021/08/03 08:46:38;;;;;;;0.38;0.38;;;21.60;53.90;;;;;;4976234;28;20487;-90
2021/08/03 08:49:06;;;;;;;2.05;0.50;;;21.70;54.60;;;;;;4994559;28;20442;-96
2021/08/03 08:51:32;;;;;;;3.72;0.80;;;;;;;;;;4993891;28;20085;-94
2021/08/03 08:54:01;;;;;;;1.83;0.53;;;21.90;55.40;;;;;;4993724;28;20389;-94
2021/08/03 08:56:27;;;;;;;0.85;0.65;;;;;;;;;;4974987;28;20054;-94
2021/08/03 08:58:53;;;;;;;3.60;0.70;;;;;;;;;;4995144;28;20539;-95
2021/08/03 09:01:19;;;;;;;3.58;0.60;;;;;;;;;;4976456;28;20038;-94
2021/08/03 09:03:45;;;;;;;0.95;0.75;;;;;;;;;;4993433;28;20135;-94
2021/08/03 09:06:11;;;;;;;4.28;1.00;;;;;;;;;;4993821;28;20022;-96
2021/08/03 09:08:43;;;;;;;1.58;0.50;;;22.30;52.10;;;;;;4960082;28;20034;-94
2021/08/03 09:11:14;;;;;;;6.20;0.70;;;22.50;51.80;;;;;;4994118;28;20113;-94
2021/08/03 09:14:03;;;;;;;1.15;0.75;;;22.80;50.20;;;;;;4976014;28;20027;-95
2021/08/03 09:16:46;;;;;;;3.35;0.63;;;23.30;50.00;;;;;;4977760;28;20035;-93
2021/08/03 09:19:30;;;;;;;4.90;1.65;;;23.90;66.70;;;;;;4988548;28;20022;-91
2021/08/03 09:22:15;;;;;;;1.98;0.93;;;;;;;;;;4993780;28;20026;-91
2021/08/03 09:24:42;;;;;;;2.10;1.40;;;24.40;45.80;;;;;;4983388;28;20030;-92
2021/08/03 09:27:08;;;;;;;0.73;0.50;;;;;;;;;;4958908;28;20496;-92
2021/08/03 09:29:43;;;;;;;3.00;1.85;;;24.00;46.30;;;;;;4973771;28;20125;-93
2021/08/03 09:32:09;;;;;;;1.17;0.50;;;;;;;;;;4993436;28;20033;-93
2021/08/03 09:34:35;;;;;;;2.15;0.70;;;;;;;;;;4975708;28;20531;-93
2021/08/03 09:37:02;;;;;;;3.63;0.60;;;;;;;;;;4973554;28;20496;-93
2021/08/03 09:39:45;;;;;;;0.90;0.65;;;23.20;48.80;;;;;;4971883;28;20522;-93
2021/08/03 09:42:27;;;;;;;1.75;0.63;;;22.90;49.00;;;;;;4993610;28;20058;-92
2021/08/03 09:44:58;;;;;;;4.07;1.00;;;;;;;;;;4973611;28;20041;-90
2021/08/03 09:47:24;;;;;;;1.10;0.63;;;;;;;;;;4971343;28;20085;-86
2021/08/03 09:49:55;;;;;;;1.13;0.60;;;22.60;50.10;;;;;;4986963;28;20038;-87
2021/08/03 09:52:34;;;;;;;1.35;0.70;;;22.50;51.00;;;;;;4989091;28;20057;-86
2021/08/03 09:55:26;;;;;;;0.63;0.50;;;22.50;50.60;;;;;;4984804;28;20201;-86
2021/08/03 09:58:04;;;;;;;0.85;0.47;;;22.60;50.60;;;;;;4979455;28;20558;-87
2021/08/03 10:00:34;;;;;;;1.25;0.50;;;22.70;51.20;;;;;;4978208;28;20038;-87
2021/08/03 10:03:00;;;;;;;1.70;0.75;;;;;;;;;;4971046;28;20117;-86
2021/08/03 10:05:27;;;;;;;8.35;0.43;;;;;;;;;;4989562;28;20049;-87
2021/08/03 10:07:55;;;;;;;2.75;0.63;;;22.70;49.80;;;;;;4968093;28;20034;-87
2021/08/03 10:10:21;;;;;;;3.30;0.73;;;;;;;;;;4984727;28;20062;-87
2021/08/03 10:12:47;;;;;;;7.15;0.88;;;;;;;;;;4997365;28;20061;-87
2021/08/03 10:15:13;;;;;;;1.67;0.75;;;;;;;;;;4987142;28;20078;-87
2021/08/03 10:17:39;;;;;;;1.25;0.65;;;;;;;;;;4986752;28;20033;-88
2021/08/03 10:20:07;;;;;;;1.35;0.65;;;;;;;;;;4979315;28;20109;-86
2021/08/03 10:23:00;;;;;;;1.38;0.73;;;22.50;52.20;;;;;;4986334;28;20030;-87
2021/08/03 10:25:40;;;;;;;1.25;0.73;;;22.50;51.10;;;;;;4978561;28;20085;-87
2021/08/03 10:28:25;;;;;;;1.15;0.60;;;22.60;70.60;;;;;;4987533;28;20514;-87
2021/08/03 10:30:52;;;;;;;7.38;0.70;;;;;;;;;;4988084;28;20030;-87
2021/08/03 10:33:43;;;;;;;1.05;0.60;;;22.70;48.60;;;;;;4989214;28;20041;-87
2021/08/03 10:36:29;;;;;;;2.38;1.10;;;23.00;48.50;;;;;;4974461;28;20030;-87
2021/08/03 10:39:18;;;;;;;1.70;0.93;;;23.10;49.00;;;;;;4965623;28;20415;-86
2021/08/03 10:41:59;;;;;;;2.25;0.82;;;23.20;48.20;;;;;;4987075;28;20026;-87
2021/08/03 10:44:37;;;;;;;2.72;0.80;;;;;;;;;;4968682;28;20527;-88
2021/08/03 10:47:03;;;;;;;4.65;0.95;;;;;;;;;;4986905;28;20128;-86
2021/08/03 10:49:55;;;;;;;1.65;0.98;;;23.30;48.00;;;;;;4987513;28;20469;-87
2021/08/03 10:52:46;;;;;;;1.08;0.70;;;23.40;48.90;;;;;;4987116;28;20030;-87
2021/08/03 10:55:30;;;;;;;1.58;0.90;;;23.50;47.90;;;;;;4985479;28;20554;-86
2021/08/03 10:58:12;;;;;;;3.78;1.75;;;23.70;48.40;;;;;;4987472;28;20026;-88
2021/08/03 11:00:56;;;;;;;2.10;1.13;;;23.70;46.90;;;;;;4987321;28;20026;-87
2021/08/03 11:03:31;;;;;;;1.63;0.85;;;;;;;;;;4968406;28;20050;-87
2021/08/03 11:06:17;;;;;;;2.15;0.77;;;24.00;46.70;;;;;;4987187;28;20038;-87
2021/08/03 11:08:44;;;;;;;1.10;0.50;;;;;;;;;;4956144;28;20046;-87
2021/08/03 11:11:24;;;;;;;2.55;0.88;;;24.00;45.90;;;;;;4990471;28;20022;-87
2021/08/03 11:13:51;;;;;;;3.65;0.82;;;23.80;45.50;;;;;;4989941;28;20062;-88
2021/08/03 11:16:20;;;;;;;1.10;0.57;;;;;;;;;;4972986;28;20022;-87
2021/08/03 11:19:05;;;;;;;2.17;1.05;;;;;;;;;;4991613;28;20042;-88
2021/08/03 11:21:38;;;;;;;2.08;0.93;;;23.70;46.20;;;;;;4990645;28;20522;-87
2021/08/03 11:24:09;;;;;;;1.52;0.90;;;23.70;47.10;;;;;;4972244;28;20031;-87
2021/08/03 11:26:56;;;;;;;2.67;1.05;;;23.70;47.30;;;;;;4991563;28;20522;-87
2021/08/03 11:29:24;;;;;;;1.77;0.82;;;23.80;46.90;;;;;;4990868;28;20033;-87
2021/08/03 11:31:50;;;;;;;1.65;1.13;;;;;;;;;;4974267;28;20117;-87
2021/08/03 11:34:29;;;;;;;1.27;0.77;;;24.00;66.20;;;;;;4993868;28;20037;-88
2021/08/03 11:36:55;;;;;;;1.58;0.60;;;;;;;;;;4991742;28;20042;-88
2021/08/03 11:39:28;;;;;;;2.35;1.02;;;;;;;;;;4971381;28;20030;-88
2021/08/03 11:41:54;;;;;;;1.25;0.80;;;;;;;;;;4992253;28;20022;-88
2021/08/03 11:44:21;;;;;;;1.35;0.85;;;23.70;47.70;;;;;;4992660;28;20038;-87
2021/08/03 11:46:55;;;;;;;0.70;0.70;;;23.40;49.50;;;;;;4993249;28;20053;-90
2021/08/03 11:49:37;;;;;;;1.80;1.17;;;23.40;48.20;;;;;;4994173;28;20049;-90
2021/08/03 11:52:16;;;;;;;1.73;0.85;;;23.50;50.70;;;;;;4964018;28;20058;-89
2021/08/03 11:54:46;;;;;;;0.90;0.55;;;23.60;53.20;;;;;;4985183;28;20053;-95
2021/08/03 11:57:32;;;;;;;0.68;0.50;;;23.70;50.50;;;;;;4977598;28;20037;-92
2021/08/03 12:00:04;;;;;;;1.63;0.75;;;;;;;;;;4961983;28;20033;-92
2021/08/03 12:02:30;;;;;;;1.17;0.40;;;;;;;;;;4975917;28;20498;-92
2021/08/03 12:05:03;;;;;;;1.80;0.60;;;23.90;49.50;;;;;;4976325;28;20050;-91
2021/08/03 12:07:29;;;;;;;0.85;0.43;;;;;;;;;;4990730;28;20531;-92
2021/08/03 12:09:55;;;;;;;1.35;0.80;;;;;;;;;;4992417;28;20033;-88
2021/08/03 12:12:21;;;;;;;1.35;0.80;;;;;;;;;;5001071;28;20046;-88
2021/08/03 12:14:47;;;;;;;4.22;0.85;;;;;;;;;;4995797;28;20038;-94
2021/08/03 12:17:28;;;;;;;1.20;0.50;;;;;;;;;;4995060;28;20042;-86
2021/08/03 12:20:01;;;;;;;2.15;0.47;;;;;;;;;;4991447;28;20034;-87
2021/08/03 12:22:28;;;;;;;1.30;0.95;;;23.90;47.90;;;;;;4990436;28;20034;-88
2021/08/03 12:25:02;;;;;;;1.08;0.63;;;24.00;48.90;;;;;;4990550;28;20034;-88
2021/08/03 12:27:41;;;;;;;2.47;0.90;;;23.80;49.00;;;;;;4991803;28;20041;-87
2021/08/03 12:30:07;;;;;;;1.15;1.05;;;;;;;;;;4972195;28;20038;-86
2021/08/03 12:32:40;;;;;;;2.20;0.70;;;;;;;;;;4992569;28;20034;-88
2021/08/03 12:35:14;;;;;;;0.65;0.45;;;23.60;58.70;;;;;;4975324;28;20025;-88
2021/08/03 12:37:40;;;;;;;1.35;0.65;;;;;;;;;;4989947;28;20027;-88
2021/08/03 12:40:26;;;;;;;0.93;0.45;;;23.50;52.90;;;;;;4990440;28;20491;-86
2021/08/03 12:42:56;;;;;;;2.17;0.80;;;;;;;;;;4975578;28;20037;-86
2021/08/03 12:45:23;;;;;;;1.65;0.73;;;;;;;;;;4970698;28;20089;-93
2021/08/03 12:47:52;;;;;;;1.57;0.97;;;;;;;;;;4992501;28;20117;-86
2021/08/03 12:50:18;;;;;;;0.93;0.60;;;;;;;;;;4991482;28;20034;-86
2021/08/03 12:52:48;;;;;;;2.83;1.02;;;;;;;;;;4973576;28;20085;-85
2021/08/03 12:55:29;;;;;;;1.30;0.88;;;23.00;53.60;;;;;;4967642;28;20062;-86
2021/08/03 12:57:57;;;;;;;3.92;1.00;;;23.00;54.30;;;;;;4982010;28;20030;-85
2021/08/03 13:00:35;;;;;;;1.33;0.80;;;;;;;;;;4990265;28;20035;-86
2021/08/03 13:03:03;;;;;;;1.65;0.80;;;23.00;53.70;;;;;;4978049;28;20034;-86
2021/08/03 13:05:29;;;;;;;1.15;0.77;;;;;;;;;;4991592;28;20496;-85
2021/08/03 13:07:55;;;;;;;2.25;0.68;;;;;;;;;;4972107;28;20026;-85
2021/08/03 13:10:21;;;;;;;2.35;0.98;;;;;;;;;;4971895;28;20040;-86
2021/08/03 13:12:47;;;;;;;1.90;0.75;;;;;;;;;;5000449;28;20045;-86
2021/08/03 13:15:14;;;;;;;2.63;1.20;;;;;;;;;;4971215;28;20042;-86
2021/08/03 13:17:41;;;;;;;2.00;1.33;;;;;;;;;;4992032;28;20051;-85
2021/08/03 13:20:08;;;;;;;0.82;0.60;;;22.80;55.30;;;;;;4969466;28;20035;-85
2021/08/03 13:22:35;;;;;;;2.00;0.80;;;;;;;;;;4988379;28;20038;-84
2021/08/03 13:25:01;;;;;;;2.70;1.07;;;;;;;;;;4994030;28;20061;-86
2021/08/03 13:27:27;;;;;;;2.53;1.15;;;;;;;;;;4989862;28;20045;-86
2021/08/03 13:29:53;;;;;;;3.28;0.60;;;;;;;;;;4990713;28;20030;-86
2021/08/03 13:32:19;;;;;;;1.58;0.90;;;;;;;;;;4972648;28;20448;-86
2021/08/03 13:34:45;;;;;;;1.77;0.95;;;;;;;;;;4971062;28;20085;-85
2021/08/03 13:37:11;;;;;;;1.95;1.38;;;;;;;;;;4970780;28;20747;-89
2021/08/03 13:39:37;;;;;;;2.67;2.05;;;;;;;;;;4975571;28;20034;-89
2021/08/03 13:42:03;;;;;;;2.65;1.27;;;;;;;;;;4974035;28;20077;-85
2021/08/03 13:44:29;;;;;;;3.20;1.27;;;;;;;;;;4970042;28;20042;-85
2021/08/03 13:46:55;;;;;;;3.13;0.90;;;;;;;;;;4988975;28;20109;-84
2021/08/03 13:49:21;;;;;;;1.40;1.05;;;;;;;;;;4988018;28;20026;-83
2021/08/03 13:51:47;;;;;;;1.73;0.90;;;;;;;;;;4987759;28;20041;-85
2021/08/03 13:54:13;;;;;;;1.73;0.73;;;;;;;;;;4970278;28;20059;-84
2021/08/03 13:56:39;;;;;;;2.22;0.88;;;;;;;;;;4988823;28;20486;-85
2021/08/03 13:59:05;;;;;;;4.38;1.15;;;;;;;;;;4986497;28;20049;-84
2021/08/03 14:01:31;;;;;;;1.92;1.23;;;;;;;;;;4987634;28;20022;-84
2021/08/03 14:03:57;;;;;;;1.92;0.95;;;;;;;;;;4990240;28;20056;-87
2021/08/03 14:06:25;;;;;;;3.47;1.38;;;;;;;;;;4994759;28;20045;-88
2021/08/03 14:08:51;;;;;;;1.70;0.80;;;;;;;;;;4993721;28;20392;-89
2021/08/03 14:11:17;;;;;;;1.13;0.95;;;;;;;;;;4994406;28;20018;-84
2021/08/03 14:13:43;;;;;;;1.70;1.17;;;;;;;;;;4988880;28;20117;-88
2021/08/03 14:16:09;;;;;;;5.80;1.00;;;;;;;;;;4977925;28;20065;-90
2021/08/03 14:18:36;;;;;;;1.38;0.90;;;21.10;66.40;;;;;;4969994;28;20069;-85
2021/08/03 14:21:03;;;;;;;3.08;1.17;;;21.10;66.10;;;;;;4995689;28;20416;-90
2021/08/03 14:23:29;;;;;;;4.68;0.90;;;;;;;;;;4975273;28;20066;-87
2021/08/03 14:25:55;;;;;;;2.30;1.00;;;;;;;;;;4971336;28;20522;-86